KPUC/PUC METAR and TAF weather

Enter ICAO airport designator
Station Type Date Time Source
KPUC METAR 2021/01/20 21:53 UTC NOAA

KPUC 202153Z AUTO 16007KT 10SM CLR 04/M04 A3018 RMK AO2 SLP245 T00391044


Station Type Date Time Source
KPUC Decoded METAR 2021/01/20 21:53 UTC NOAA

PRICE CARBON COUNTY AIRPORT, UT, United States (KPUC) 39-37N 110-45W 2091M
Jan 20, 2021 - 04:53 PM EST / 2021.01.20 2153 UTC
Wind: from the SSE (160 degrees) at 8 MPH (7 KT):0
Visibility: 10 mile(s):0
Sky conditions: clear
Temperature: 39.0 F (3.9 C)
Dew Point: 24.1 F (-4.4 C)
Relative Humidity: 54%
Pressure (altimeter): 30.18 in. Hg (1022 hPa)
ob: KPUC 202153Z AUTO 16007KT 10SM CLR 04/M04 A3018 RMK AO2 SLP245 T00391044
cycle: 22

Station Type Date Time Source
KPUC TAF UTC NOAA

Error!

Example: see airport list